Time;durP1;ratioP1;P1;durP2;ratioP2;P2;SDS_P1;SDS_P2;PMS_P1;PMS_P2;Temp;Humidity;BMP_temperature;BMP_pressure;BME280_temperature;BME280_humidity;BME280_pressure;Samples;Min_cycle;Max_cycle;Signal;HPM_P1;HPM_P2
2023/09/09 00:02:09;;;;;;;;;;;;;;;;;;5102396;28;2301;-65
2023/09/09 00:04:35;;;;;;;;;;;;;;;;;;5097075;28;4427;-65
2023/09/09 00:07:02;;;;;;;;;;;;;;;;;;5088739;28;4827;-65
2023/09/09 00:09:29;;;;;;;;;;;;;;;;;;5086211;28;4462;-66
2023/09/09 00:11:54;;;;;;;;;;;;;;;;;;5090897;28;5028;-65
2023/09/09 00:14:19;;;;;;;;;;;;;;;;;;5102454;28;1465;-65
2023/09/09 00:16:44;;;;;;;;;;;;;;;;;;5115284;27;5011;-65
2023/09/09 00:19:10;;;;;;;;;;;;;;;;;;5093355;28;5008;-65
2023/09/09 00:21:35;;;;;;;;;;;;;;;;;;5076936;28;4623;-65
2023/09/09 00:24:00;;;;;;;;;;;;;;;;;;5094724;28;5081;-66
2023/09/09 00:26:27;;;;;;;;;;;;;;;;;;5099542;28;5240;-66
2023/09/09 00:28:53;;;;;;;;;;;;;;;;;;5090689;28;5016;-66
2023/09/09 00:31:18;;;;;;;;;;;;;;;;;;5095477;28;5097;-65
2023/09/09 00:33:43;;;;;;;;;;;;;;;;;;5095444;28;5287;-65
2023/09/09 00:36:09;;;;;;;;;;;;;;;;;;5095908;28;5007;-65
2023/09/09 00:38:34;;;;;;;;;;;;;;;;;;5095137;28;5144;-64
2023/09/09 00:41:29;;;;;;;;;;;;;;;;;;5093425;28;1988;-65
2023/09/09 00:43:54;;;;;;;;;;;;;;;;;;5087102;28;5030;-65
2023/09/09 00:46:19;;;;;;;;;;;;;;;;;;5083447;28;4719;-65
2023/09/09 00:48:45;;;;;;;;;;;;;;;;;;5101484;28;5046;-64
2023/09/09 00:51:11;;;;;;;;;;;;;;;;;;5094044;28;4762;-65
2023/09/09 00:53:36;;;;;;;;;;;;;;;;;;5091884;28;4529;-65
2023/09/09 00:56:02;;;;;;;;;;;;;;;;;;5089476;28;3316;-65
2023/09/09 00:58:33;;;;;;;;;;;;;;;;;;5093460;28;4611;-65
2023/09/09 01:01:00;;;;;;;;;;;;;;;;;;5089087;28;5270;-65
2023/09/09 01:03:25;;;;;;;;;;;;;;;;;;5087691;28;5017;-66
2023/09/09 01:05:50;;;;;;;;;;;;;;;;;;5087108;28;4877;-66
2023/09/09 01:08:28;;;;;;;;;;;;;;;;;;5104096;27;3238;-66
2023/09/09 01:10:54;;;;;;;;;;;;;;;;;;5083565;28;5267;-66
2023/09/09 01:13:19;;;;;;;;;;;;;;;;;;5089662;28;5010;-65
2023/09/09 01:15:45;;;;;;;;;;;;;;;;;;5090467;28;5101;-65
2023/09/09 01:18:10;;;;;;;;;;;;;;;;;;5071172;28;5073;-65
2023/09/09 01:20:35;;;;;;;;;;;;;;;;;;5099932;27;4618;-65
2023/09/09 01:23:01;;;;;;;;;;;;;;;;;;5110344;27;3363;-65
2023/09/09 01:25:26;;;;;;;;;;;;;;;;;;5072654;28;4566;-65
2023/09/09 01:27:51;;;;;;;;;;;;;;;;;;5088451;28;5076;-65
2023/09/09 01:30:16;;;;;;;;;;;;;;;;;;5090535;28;4944;-67
2023/09/09 01:32:42;;;;;;;;;;;;;;;;;;5094081;28;5235;-67
2023/09/09 01:35:08;;;;;;;;;;;;;;;;;;5096261;28;3237;-67
2023/09/09 01:37:33;;;;;;;;;;;;;;;;;;5099045;28;4981;-68
2023/09/09 01:40:06;;;;;;;;;;;;;;;;;;5088892;28;4510;-68
2023/09/09 01:42:32;;;;;;;;;;;;;;;;;;5096456;28;4965;-68
2023/09/09 01:44:57;;;;;;;;;;;;;;;;;;5093124;28;5094;-68
2023/09/09 01:47:23;;;;;;;;;;;;;;;;;;5098279;28;4984;-68
2023/09/09 01:49:48;;;;;;;;;;;;;;;;;;5090089;28;3325;-68
2023/09/09 01:52:13;;;;;;;;;;;;;;;;;;5090778;28;5022;-68
2023/09/09 01:54:38;;;;;;;;;;;;;;;;;;5097532;28;5093;-68
2023/09/09 01:57:04;;;;;;;;;;;;;;;;;;5102673;28;4842;-68
2023/09/09 01:59:29;;;;;;;;;;;;;;;;;;5088802;28;5257;-68
2023/09/09 02:01:54;;;;;;;;;;;;;;;;;;5097791;28;1934;-68
2023/09/09 02:04:20;;;;;;;;;;;;;;;;;;5088161;28;4791;-68
2023/09/09 02:06:46;;;;;;;;;;;;;;;;;;5096272;28;4449;-68
2023/09/09 02:09:12;;;;;;;;;;;;;;;;;;5092531;28;5046;-68
2023/09/09 02:11:37;;;;;;;;;;;;;;;;;;5090082;28;5085;-67
2023/09/09 02:14:02;;;;;;;;;;;;;;;;;;5092900;28;3455;-67
2023/09/09 02:16:28;;;;;;;;;;;;;;;;;;5096580;28;4962;-67
2023/09/09 02:18:53;;;;;;;;;;;;;;;;;;5089414;28;4573;-68
2023/09/09 02:21:18;;;;;;;;;;;;;;;;;;5094236;28;4737;-67
2023/09/09 02:23:44;;;;;;;;;;;;;;;;;;5089056;28;4690;-68
2023/09/09 02:26:09;;;;;;;;;;;;;;;;;;5092317;28;3276;-67
2023/09/09 02:28:34;;;;;;;;;;;;;;;;;;5089908;28;5145;-66
2023/09/09 02:31:00;;;;;;;;;;;;;;;;;;5085295;28;5175;-67
2023/09/09 02:33:25;;;;;;;;;;;;;;;;;;5093850;28;5082;-67
2023/09/09 02:35:50;;;;;;;;;;;;;;;;;;5095643;28;5154;-67
2023/09/09 02:38:15;;;;;;;;;;;;;;;;;;5100663;28;3229;-66
2023/09/09 02:40:41;;;;;;;;;;;;;;;;;;5083890;28;5003;-68
2023/09/09 02:43:06;;;;;;;;;;;;;;;;;;5103086;28;5278;-67
2023/09/09 02:45:31;;;;;;;;;;;;;;;;;;5091168;28;5116;-67
2023/09/09 02:47:57;;;;;;;;;;;;;;;;;;5091778;28;4930;-66
2023/09/09 02:50:22;;;;;;;;;;;;;;;;;;5076349;28;5170;-62
2023/09/09 02:52:48;;;;;;;;;;;;;;;;;;5097182;28;3347;-67
2023/09/09 02:55:13;;;;;;;;;;;;;;;;;;5090808;28;4736;-67
2023/09/09 02:57:38;;;;;;;;;;;;;;;;;;5091875;28;5089;-67
2023/09/09 03:00:06;;;;;;;;;;;;;;;;;;5095614;28;5378;-67
2023/09/09 03:02:31;;;;;;;;;;;;;;;;;;5092863;28;5171;-67
2023/09/09 03:04:57;;;;;;;;;;;;;;;;;;5092845;28;3307;-68
2023/09/09 03:07:22;;;;;;;;;;;;;;;;;;5101493;28;4531;-67
2023/09/09 03:09:47;;;;;;;;;;;;;;;;;;5090880;28;5335;-68
2023/09/09 03:12:13;;;;;;;;;;;;;;;;;;5101599;28;5088;-68
2023/09/09 03:14:38;;;;;;;;;;;;;;;;;;5092882;28;5010;-66
2023/09/09 03:17:03;;;;;;;;;;;;;;;;;;5110682;27;3246;-67
2023/09/09 03:19:28;;;;;;;;;;;;;;;;;;5097376;28;5046;-67
2023/09/09 03:21:54;;;;;;;;;;;;;;;;;;5095797;28;4649;-67
2023/09/09 03:24:19;;;;;;;;;;;;;;;;;;5091125;28;4531;-67
2023/09/09 03:26:44;;;;;;;;;;;;;;;;;;5099524;28;5244;-67
2023/09/09 03:29:09;;;;;;;;;;;;;;;;;;5094065;28;4996;-67
2023/09/09 03:31:35;;;;;;;;;;;;;;;;;;5089630;28;4495;-68
2023/09/09 03:34:00;;;;;;;;;;;;;;;;;;5102688;28;4449;-67
2023/09/09 03:36:25;;;;;;;;;;;;;;;;;;5094154;28;6060;-67
2023/09/09 03:38:50;;;;;;;;;;;;;;;;;;5090908;28;5032;-67
2023/09/09 03:41:16;;;;;;;;;;;;;;;;;;5099354;28;3213;-67
2023/09/09 03:43:41;;;;;;;;;;;;;;;;;;5092312;28;4843;-67
2023/09/09 03:46:06;;;;;;;;;;;;;;;;;;5095216;28;5023;-67
2023/09/09 03:48:32;;;;;;;;;;;;;;;;;;5092936;28;5127;-67
2023/09/09 03:51:00;;;;;;;;;;;;;;;;;;5090477;28;5219;-67
2023/09/09 03:53:26;;;;;;;;;;;;;;;;;;5117269;27;5041;-67
2023/09/09 03:55:51;;;;;;;;;;;;;;;;;;5091209;28;3273;-66
2023/09/09 03:58:16;;;;;;;;;;;;;;;;;;5095018;28;4433;-66
2023/09/09 04:00:41;;;;;;;;;;;;;;;;;;5096095;28;5030;-67
2023/09/09 04:03:07;;;;;;;;;;;;;;;;;;5070563;28;5082;-67
2023/09/09 04:05:32;;;;;;;;;;;;;;;;;;5098679;28;4972;-67
2023/09/09 04:07:58;;;;;;;;;;;;;;;;;;5099886;28;1150;-68
2023/09/09 04:10:23;;;;;;;;;;;;;;;;;;5069302;28;5068;-67
2023/09/09 04:12:49;;;;;;;;;;;;;;;;;;5092437;28;4878;-68
2023/09/09 04:15:14;;;;;;;;;;;;;;;;;;5099394;28;5041;-67
2023/09/09 04:17:40;;;;;;;;;;;;;;;;;;5100062;28;5060;-67
2023/09/09 04:20:08;;;;;;;;;;;;;;;;;;5101598;28;1127;-67
2023/09/09 04:22:34;;;;;;;;;;;;;;;;;;5099685;28;5338;-68
2023/09/09 04:24:59;;;;;;;;;;;;;;;;;;5103200;28;5026;-68
2023/09/09 04:27:25;;;;;;;;;;;;;;;;;;5093412;28;4612;-68
2023/09/09 04:29:50;;;;;;;;;;;;;;;;;;5095936;28;5034;-67
2023/09/09 04:32:15;;;;;;;;;;;;;;;;;;5098061;28;1281;-67
2023/09/09 04:34:41;;;;;;;;;;;;;;;;;;5080316;28;4969;-67
2023/09/09 04:37:06;;;;;;;;;;;;;;;;;;5091410;28;5121;-66
2023/09/09 04:39:31;;;;;;;;;;;;;;;;;;5091051;28;4997;-67
2023/09/09 04:41:57;;;;;;;;;;;;;;;;;;5075063;28;4717;-66
2023/09/09 04:44:22;;;;;;;;;;;;;;;;;;5075112;28;5067;-65
2023/09/09 04:46:47;;;;;;;;;;;;;;;;;;5083109;28;3374;-66
2023/09/09 04:49:13;;;;;;;;;;;;;;;;;;5088383;28;5106;-67
2023/09/09 04:51:38;;;;;;;;;;;;;;;;;;5088188;28;4617;-66
2023/09/09 04:54:03;;;;;;;;;;;;;;;;;;5086656;28;4925;-67
2023/09/09 04:56:29;;;;;;;;;;;;;;;;;;5091271;28;5186;-68
2023/09/09 04:58:54;;;;;;;;;;;;;;;;;;5086159;28;3349;-68
2023/09/09 05:01:20;;;;;;;;;;;;;;;;;;5088190;28;5239;-68
2023/09/09 05:03:45;;;;;;;;;;;;;;;;;;5086389;28;5180;-67
2023/09/09 05:06:10;;;;;;;;;;;;;;;;;;5090328;28;4731;-67
2023/09/09 05:08:35;;;;;;;;;;;;;;;;;;5093421;28;5279;-66
2023/09/09 05:11:01;;;;;;;;;;;;;;;;;;5091945;28;1301;-66
2023/09/09 05:13:26;;;;;;;;;;;;;;;;;;5088108;28;4964;-67
2023/09/09 05:15:51;;;;;;;;;;;;;;;;;;5089330;28;4977;-67
2023/09/09 05:18:17;;;;;;;;;;;;;;;;;;5094245;28;4487;-66
2023/09/09 05:20:43;;;;;;;;;;;;;;;;;;5088547;28;5420;-65
2023/09/09 05:23:08;;;;;;;;;;;;;;;;;;5090855;28;3216;-66
2023/09/09 05:25:33;;;;;;;;;;;;;;;;;;5089696;28;4955;-67
2023/09/09 05:27:58;;;;;;;;;;;;;;;;;;5100597;28;5051;-66
2023/09/09 05:30:24;;;;;;;;;;;;;;;;;;5088522;28;5047;-67
2023/09/09 05:32:49;;;;;;;;;;;;;;;;;;5099815;28;4662;-67
2023/09/09 05:35:14;;;;;;;;;;;;;;;;;;5088419;28;3213;-67
2023/09/09 05:37:40;;;;;;;;;;;;;;;;;;5095899;28;5992;-67
2023/09/09 05:40:06;;;;;;;;;;;;;;;;;;5090141;28;5020;-67
2023/09/09 05:42:31;;;;;;;;;;;;;;;;;;5089157;28;5284;-68
2023/09/09 05:44:56;;;;;;;;;;;;;;;;;;5090759;28;4855;-66
2023/09/09 05:47:22;;;;;;;;;;;;;;;;;;5089785;28;3169;-66
2023/09/09 05:49:47;;;;;;;;;;;;;;;;;;5091379;28;5157;-67
2023/09/09 05:52:12;;;;;;;;;;;;;;;;;;5097846;28;4563;-68
2023/09/09 05:54:38;;;;;;;;;;;;;;;;;;5062250;28;5210;-66
2023/09/09 05:57:03;;;;;;;;;;;;;;;;;;5093155;28;4467;-66
2023/09/09 05:59:29;;;;;;;;;;;;;;;;;;5085920;28;5172;-67
2023/09/09 06:01:54;;;;;;;;;;;;;;;;;;5090101;28;3173;-65
2023/09/09 06:04:20;;;;;;;;;;;;;;;;;;5068224;28;4708;-66
2023/09/09 06:06:45;;;;;;;;;;;;;;;;;;5087693;28;4538;-68
2023/09/09 06:09:10;;;;;;;;;;;;;;;;;;5066885;28;4466;-67
2023/09/09 06:11:36;;;;;;;;;;;;;;;;;;5084425;28;4597;-67
2023/09/09 06:14:01;;;;;;;;;;;;;;;;;;5076693;28;3706;-67
2023/09/09 06:16:26;;;;;;;;;;;;;;;;;;5091121;28;4984;-67
2023/09/09 06:18:51;;;;;;;;;;;;;;;;;;5090434;28;4912;-67
2023/09/09 06:21:17;;;;;;;;;;;;;;;;;;5069011;28;5423;-67
2023/09/09 06:23:42;;;;;;;;;;;;;;;;;;5085053;28;4488;-68
2023/09/09 06:26:07;;;;;;;;;;;;;;;;;;5082487;28;3249;-67
2023/09/09 06:28:33;;;;;;;;;;;;;;;;;;5084806;28;5044;-68
2023/09/09 06:30:58;;;;;;;;;;;;;;;;;;5086763;28;5028;-64
2023/09/09 06:33:24;;;;;;;;;;;;;;;;;;5062546;28;4709;-61
2023/09/09 06:35:49;;;;;;;;;;;;;;;;;;5062753;28;5962;-71
2023/09/09 06:38:15;;;;;;;;;;;;;;;;;;5080135;28;3437;-71
2023/09/09 06:40:42;;;;;;;;;;;;;;;;;;5079092;28;4504;-59
2023/09/09 06:43:07;;;;;;;;;;;;;;;;;;5083130;28;4499;-59
2023/09/09 06:45:33;;;;;;;;;;;;;;;;;;5082894;28;4490;-60
2023/09/09 06:47:58;;;;;;;;;;;;;;;;;;5059492;28;5171;-62
2023/09/09 06:50:24;;;;;;;;;;;;;;;;;;5087947;28;4949;-66
2023/09/09 06:52:49;;;;;;;;;;;;;;;;;;5077245;28;3628;-65
2023/09/09 06:55:14;;;;;;;;;;;;;;;;;;5084197;28;5119;-62
2023/09/09 06:57:39;;;;;;;;;;;;;;;;;;5081636;28;4474;-62
2023/09/09 07:00:05;;;;;;;;;;;;;;;;;;5085507;28;5074;-62
2023/09/09 07:02:30;;;;;;;;;;;;;;;;;;5088103;28;5036;-61
2023/09/09 07:04:56;;;;;;;;;;;;;;;;;;5092180;28;3337;-73
2023/09/09 07:07:21;;;;;;;;;;;;;;;;;;5079281;28;4688;-60
2023/09/09 07:09:46;;;;;;;;;;;;;;;;;;5079003;28;4662;-60
2023/09/09 07:12:12;;;;;;;;;;;;;;;;;;5085772;28;5091;-60
2023/09/09 07:14:37;;;;;;;;;;;;;;;;;;5076705;28;5086;-63
2023/09/09 07:17:03;;;;;;;;;;;;;;;;;;5092042;28;1132;-62
2023/09/09 07:19:28;;;;;;;;;;;;;;;;;;5065265;28;4770;-61
2023/09/09 07:21:54;;;;;;;;;;;;;;;;;;5087127;28;5172;-63
2023/09/09 07:24:19;;;;;;;;;;;;;;;;;;5083575;28;4483;-63
2023/09/09 07:26:44;;;;;;;;;;;;;;;;;;5078720;28;4509;-61
2023/09/09 07:29:09;;;;;;;;;;;;;;;;;;5083459;28;5210;-61
2023/09/09 07:31:35;;;;;;;;;;;;;;;;;;5072566;28;5049;-67
2023/09/09 07:34:00;;;;;;;;;;;;;;;;;;5080714;28;5039;-62
2023/09/09 07:36:25;;;;;;;;;;;;;;;;;;5087290;28;4580;-65
2023/09/09 07:38:51;;;;;;;;;;;;;;;;;;5088910;28;4880;-62
2023/09/09 07:41:16;;;;;;;;;;;;;;;;;;5087025;28;3168;-64
2023/09/09 07:43:42;;;;;;;;;;;;;;;;;;5081696;28;4970;-61
2023/09/09 07:46:08;;;;;;;;;;;;;;;;;;5089170;28;5164;-58
2023/09/09 07:48:33;;;;;;;;;;;;;;;;;;5090939;28;5032;-60
2023/09/09 07:50:59;;;;;;;;;;;;;;;;;;5081502;28;5217;-63
2023/09/09 07:53:24;;;;;;;;;;;;;;;;;;5081686;28;5235;-64
2023/09/09 07:55:50;;;;;;;;;;;;;;;;;;5051696;28;3394;-62
2023/09/09 07:58:18;;;;;;;;;;;;;;;;;;5091432;28;5014;-63
2023/09/09 08:00:44;;;;;;;;;;;;;;;;;;5085457;28;4990;-67
2023/09/09 08:03:10;;;;;;;;;;;;;;;;;;5057895;28;4534;-62
2023/09/09 08:05:36;;;;;;;;;;;;;;;;;;5078219;28;5508;-63
2023/09/09 08:08:02;;;;;;;;;;;;;;;;;;5089184;28;3387;-60
2023/09/09 08:10:27;;;;;;;;;;;;;;;;;;5086827;28;5114;-64
2023/09/09 08:12:52;;;;;;;;;;;;;;;;;;5078647;28;4934;-65
2023/09/09 08:15:18;;;;;;;;;;;;;;;;;;5074577;28;5144;-63
2023/09/09 08:17:43;;;;;;;;;;;;;;;;;;5081143;28;4658;-63
2023/09/09 08:20:08;;;;;;;;;;;;;;;;;;5079580;28;3423;-63
2023/09/09 08:22:34;;;;;;;;;;;;;;;;;;5082392;28;4571;-61
2023/09/09 08:25:00;;;;;;;;;;;;;;;;;;5085554;28;4818;-61
2023/09/09 08:27:25;;;;;;;;;;;;;;;;;;5078312;28;4496;-61
2023/09/09 08:29:50;;;;;;;;;;;;;;;;;;5083442;28;4898;-60
2023/09/09 08:32:15;;;;;;;;;;;;;;;;;;5081252;28;3602;-61
2023/09/09 08:34:41;;;;;;;;;;;;;;;;;;5082243;28;4404;-61
2023/09/09 08:37:07;;;;;;;;;;;;;;;;;;5088500;28;5250;-60
2023/09/09 08:39:33;;;;;;;;;;;;;;;;;;5077527;28;5271;-61
2023/09/09 08:42:10;;;;;;;;;;;;;;;;;;5071924;28;5096;-60
2023/09/09 08:44:44;;;;;;;;;;;;;;;;;;5081428;28;4521;-60
2023/09/09 08:47:10;;;;;;;;;;;;;;;;;;5078900;28;3472;-63
2023/09/09 08:49:35;;;;;;;;;;;;;;;;;;5078913;28;4861;-63
2023/09/09 08:52:06;;;;;;;;;;;;;;;;;;5076840;28;5528;-59
2023/09/09 08:54:32;;;;;;;;;;;;;;;;;;5082662;28;4893;-59
2023/09/09 08:56:57;;;;;;;;;;;;;;;;;;5092309;27;5035;-62
2023/09/09 08:59:23;;;;;;;;;;;;;;;;;;5079129;28;4947;-65
2023/09/09 09:01:48;;;;;;;;;;;;;;;;;;5074846;28;3355;-61
2023/09/09 09:04:14;;;;;;;;;;;;;;;;;;5089153;28;4431;-60
2023/09/09 09:06:39;;;;;;;;;;;;;;;;;;5081562;28;4452;-61
2023/09/09 09:09:04;;;;;;;;;;;;;;;;;;5081273;28;4493;-60
2023/09/09 09:11:30;;;;;;;;;;;;;;;;;;5083983;28;4480;-61
2023/09/09 09:14:00;;;;;;;;;;;;;;;;;;5085633;28;1144;-61
2023/09/09 09:16:25;;;;;;;;;;;;;;;;;;5084834;28;5034;-62
2023/09/09 09:18:50;;;;;;;;;;;;;;;;;;5077434;28;4982;-60
2023/09/09 09:21:16;;;;;;;;;;;;;;;;;;5086715;28;5126;-63
2023/09/09 09:23:42;;;;;;;;;;;;;;;;;;5086373;28;5084;-63
2023/09/09 09:26:11;;;;;;;;;;;;;;;;;;5086069;28;1222;-61
2023/09/09 09:28:36;;;;;;;;;;;;;;;;;;5094108;28;4993;-64
2023/09/09 09:31:01;;;;;;;;;;;;;;;;;;5066652;28;4986;-61
2023/09/09 09:33:29;;;;;;;;;;;;;;;;;;5086333;28;4472;-61
2023/09/09 09:35:55;;;;;;;;;;;;;;;;;;5078284;28;5033;-61
2023/09/09 09:38:20;;;;;;;;;;;;;;;;;;5101949;28;2718;-61
2023/09/09 09:40:45;;;;;;;;;;;;;;;;;;5080137;28;4417;-62
2023/09/09 09:43:20;;;;;;;;;;;;;;;;;;5087330;28;5041;-62
2023/09/09 09:45:45;;;;;;;;;;;;;;;;;;5085825;28;5274;-62
2023/09/09 09:48:10;;;;;;;;;;;;;;;;;;5087423;28;4986;-60
2023/09/09 09:50:37;;;;;;;;;;;;;;;;;;5086778;28;5355;-64
2023/09/09 09:53:03;;;;;;;;;;;;;;;;;;5078782;28;1278;-60
2023/09/09 09:55:28;;;;;;;;;;;;;;;;;;5086059;28;5168;-60
2023/09/09 09:57:54;;;;;;;;;;;;;;;;;;5088024;28;4935;-60
2023/09/09 10:00:20;;;;;;;;;;;;;;;;;;5068147;28;5066;-63
2023/09/09 10:02:45;;;;;;;;;;;;;;;;;;5079246;28;5003;-60
2023/09/09 10:05:12;;;;;;;;;;;;;;;;;;5087181;28;1258;-61
2023/09/09 10:07:41;;;;;;;;;;;;;;;;;;5085885;28;4570;-60
2023/09/09 10:10:07;;;;;;;;;;;;;;;;;;5067655;28;4952;-60
2023/09/09 10:12:37;;;;;;;;;;;;;;;;;;5086883;28;4511;-61
2023/09/09 10:15:02;;;;;;;;;;;;;;;;;;5050814;28;4668;-62
2023/09/09 10:17:28;;;;;;;;;;;;;;;;;;5085102;28;5031;-61
2023/09/09 10:19:53;;;;;;;;;;;;;;;;;;5080521;28;1103;-62
2023/09/09 10:22:19;;;;;;;;;;;;;;;;;;5093429;28;5100;-61
2023/09/09 10:24:44;;;;;;;;;;;;;;;;;;5086346;28;4463;-59
2023/09/09 10:27:10;;;;;;;;;;;;;;;;;;5096322;28;4530;-63
2023/09/09 10:29:36;;;;;;;;;;;;;;;;;;5082971;28;4950;-61
2023/09/09 10:32:02;;;;;;;;;;;;;;;;;;5086523;28;1238;-61
2023/09/09 10:34:28;;;;;;;;;;;;;;;;;;5086329;28;4475;-61
2023/09/09 10:36:53;;;;;;;;;;;;;;;;;;5086745;28;4520;-61
2023/09/09 10:39:19;;;;;;;;;;;;;;;;;;5063265;28;4974;-60
2023/09/09 10:41:45;;;;;;;;;;;;;;;;;;5086868;28;5044;-60
2023/09/09 10:44:10;;;;;;;;;;;;;;;;;;5088095;28;3350;-64
2023/09/09 10:46:37;;;;;;;;;;;;;;;;;;5081430;28;4896;-58
2023/09/09 10:49:05;;;;;;;;;;;;;;;;;;5081106;28;5066;-59
2023/09/09 10:51:48;;;;;;;;;;;;;;;;;;5049043;28;5112;-58
2023/09/09 10:54:14;;;;;;;;;;;;;;;;;;5084125;28;5321;-59
2023/09/09 10:56:46;;;;;;;;;;;;;;;;;;5078893;28;5159;-58
2023/09/09 10:59:31;;;;;;;;;;;;;;;;;;5070135;28;3652;-61
2023/09/09 11:02:13;;;;;;;;;;;;;;;;;;5071559;28;5022;-61
2023/09/09 11:04:38;;;;;;;;;;;;;;;;;;5080868;28;5146;-62
2023/09/09 11:07:04;;;;;;;;;;;;;;;;;;5097545;28;4945;-62
2023/09/09 11:09:29;;;;;;;;;;;;;;;;;;5082494;28;4470;-63
2023/09/09 11:11:55;;;;;;;;;;;;;;;;;;5077055;28;4539;-62
2023/09/09 11:14:20;;;;;;;;;;;;;;;;;;5083473;28;3567;-60
2023/09/09 11:16:48;;;;;;;;;;;;;;;;;;5084452;28;4928;-60
2023/09/09 11:19:14;;;;;;;;;;;;;;;;;;5070717;28;4535;-66
2023/09/09 11:21:45;;;;;;;;;;;;;;;;;;5067240;28;4887;-54
2023/09/09 11:24:10;;;;;;;;;;;;;;;;;;5084670;28;4957;-61
2023/09/09 11:26:39;;;;;;;;;;;;;;;;;;5078585;28;5191;-61
2023/09/09 11:29:05;;;;;;;;;;;;;;;;;;5083328;28;4898;-62
2023/09/09 11:31:30;;;;;;;;;;;;;;;;;;5083276;28;5231;-59
2023/09/09 11:33:56;;;;;;;;;;;;;;;;;;5083031;28;5020;-59
2023/09/09 11:36:21;;;;;;;;;;;;;;;;;;5088438;28;4887;-61
2023/09/09 11:38:46;;;;;;;;;;;;;;;;;;5087584;28;4557;-61
2023/09/09 11:41:22;;;;;;;;;;;;;;;;;;5064496;28;3250;-65
2023/09/09 11:44:03;;;;;;;;;;;;;;;;;;5082808;28;4992;-63
2023/09/09 11:46:30;;;;;;;;;;;;;;;;;;5085017;28;4973;-59
2023/09/09 11:48:56;;;;;;;;;;;;;;;;;;5084193;28;4639;-60
2023/09/09 11:51:21;;;;;;;;;;;;;;;;;;5084206;28;4851;-61
2023/09/09 11:53:46;;;;;;;;;;;;;;;;;;5082436;28;4960;-65
2023/09/09 11:56:15;;;;;;;;;;;;;;;;;;5081079;28;3487;-58
2023/09/09 11:58:40;;;;;;;;;;;;;;;;;;5082189;28;5063;-57
2023/09/09 12:01:06;;;;;;;;;;;;;;;;;;5092987;28;5332;-58
2023/09/09 12:03:31;;;;;;;;;;;;;;;;;;5085328;28;4661;-56
2023/09/09 12:05:56;;;;;;;;;;;;;;;;;;5088278;28;5091;-57
2023/09/09 12:08:22;;;;;;;;;;;;;;;;;;5081816;28;1144;-58
2023/09/09 12:10:47;;;;;;;;;;;;;;;;;;5082857;28;4833;-57
2023/09/09 12:13:13;;;;;;;;;;;;;;;;;;5088688;28;4432;-57
2023/09/09 12:15:38;;;;;;;;;;;;;;;;;;5086458;28;4504;-61
2023/09/09 12:18:13;;;;;;;;;;;;;;;;;;5061461;28;4499;-63
2023/09/09 12:20:56;;;;;;;;;;;;;;;;;;5081318;28;4884;-63
2023/09/09 12:23:28;;;;;;;;;;;;;;;;;;5079570;28;3446;-63
2023/09/09 12:25:53;;;;;;;;;;;;;;;;;;5082394;28;6036;-65
2023/09/09 12:28:19;;;;;;;;;;;;;;;;;;5087389;28;5218;-67
2023/09/09 12:30:44;;;;;;;;;;;;;;;;;;5082531;28;5129;-70
2023/09/09 12:33:13;;;;;;;;;;;;;;;;;;5084980;28;4497;-66
2023/09/09 12:35:38;;;;;;;;;;;;;;;;;;5078670;28;5199;-67
2023/09/09 12:38:03;;;;;;;;;;;;;;;;;;5083843;28;1395;-65
2023/09/09 12:40:47;;;;;;;;;;;;;;;;;;5086379;28;4453;-66
2023/09/09 12:43:13;;;;;;;;;;;;;;;;;;5084723;28;4913;-64
2023/09/09 12:45:48;;;;;;;;;;;;;;;;;;5086116;28;4694;-57
2023/09/09 12:48:13;;;;;;;;;;;;;;;;;;5089398;28;4523;-57
2023/09/09 12:50:38;;;;;;;;;;;;;;;;;;5075443;28;4523;-50
2023/09/09 12:53:03;;;;;;;;;;;;;;;;;;5079080;28;3612;-50
2023/09/09 12:55:29;;;;;;;;;;;;;;;;;;5084558;28;5093;-51
2023/09/09 12:57:54;;;;;;;;;;;;;;;;;;5082715;28;4517;-49
2023/09/09 13:00:19;;;;;;;;;;;;;;;;;;5065849;28;5408;-54
2023/09/09 13:02:44;;;;;;;;;;;;;;;;;;5081665;28;4669;-53
2023/09/09 13:05:10;;;;;;;;;;;;;;;;;;5076608;28;3358;-50
2023/09/09 13:07:35;;;;;;;;;;;;;;;;;;5088184;28;5035;-51
2023/09/09 13:10:00;;;;;;;;;;;;;;;;;;5081398;28;4953;-51
2023/09/09 13:12:25;;;;;;;;;;;;;;;;;;5077898;28;5391;-52
2023/09/09 13:14:51;;;;;;;;;;;;;;;;;;5078313;28;4603;-54
2023/09/09 13:17:16;;;;;;;;;;;;;;;;;;5085882;28;3224;-54
2023/09/09 13:19:41;;;;;;;;;;;;;;;;;;5058107;28;4950;-53
2023/09/09 13:22:07;;;;;;;;;;;;;;;;;;5077225;28;4986;-53
2023/09/09 13:24:32;;;;;;;;;;;;;;;;;;5058455;28;4506;-51
2023/09/09 13:26:57;;;;;;;;;;;;;;;;;;5080885;28;4903;-52
2023/09/09 13:29:23;;;;;;;;;;;;;;;;;;5077888;28;4894;-52
2023/09/09 13:31:48;;;;;;;;;;;;;;;;;;5076429;28;3632;-51
2023/09/09 13:34:13;;;;;;;;;;;;;;;;;;5085174;28;4643;-54
2023/09/09 13:36:39;;;;;;;;;;;;;;;;;;5082998;28;4983;-51
2023/09/09 13:39:04;;;;;;;;;;;;;;;;;;5064999;28;5221;-53
2023/09/09 13:41:29;;;;;;;;;;;;;;;;;;5067972;28;5094;-51
2023/09/09 13:43:55;;;;;;;;;;;;;;;;;;5081627;28;3422;-62
2023/09/09 13:46:21;;;;;;;;;;;;;;;;;;5079621;28;5037;-57
2023/09/09 13:48:46;;;;;;;;;;;;;;;;;;5081502;28;4749;-51
2023/09/09 13:51:12;;;;;;;;;;;;;;;;;;5082916;28;4949;-52
2023/09/09 13:53:37;;;;;;;;;;;;;;;;;;5083570;28;4570;-54
2023/09/09 13:56:02;;;;;;;;;;;;;;;;;;5086164;28;3355;-62
2023/09/09 13:58:28;;;;;;;;;;;;;;;;;;5065065;28;4660;-58
2023/09/09 14:00:53;;;;;;;;;;;;;;;;;;5080484;27;4497;-58
2023/09/09 14:03:19;;;;;;;;;;;;;;;;;;5082003;28;4608;-59
2023/09/09 14:05:44;;;;;;;;;;;;;;;;;;5078243;28;4891;-60
2023/09/09 14:08:10;;;;;;;;;;;;;;;;;;5087554;28;3374;-59
2023/09/09 14:10:35;;;;;;;;;;;;;;;;;;5087525;28;4534;-62
2023/09/09 14:13:00;;;;;;;;;;;;;;;;;;5083439;28;4994;-68
2023/09/09 14:15:27;;;;;;;;;;;;;;;;;;5099238;28;5006;-65
2023/09/09 14:17:52;;;;;;;;;;;;;;;;;;5076816;28;4742;-66
2023/09/09 14:20:17;;;;;;;;;;;;;;;;;;5091273;28;3136;-61
2023/09/09 14:22:43;;;;;;;;;;;;;;;;;;5094964;28;5070;-62
2023/09/09 14:25:08;;;;;;;;;;;;;;;;;;5083006;28;5179;-58
2023/09/09 14:27:34;;;;;;;;;;;;;;;;;;5092046;28;4533;-66
2023/09/09 14:29:59;;;;;;;;;;;;;;;;;;5085023;28;5050;-63
2023/09/09 14:32:24;;;;;;;;;;;;;;;;;;5082687;28;4502;-63
2023/09/09 14:34:50;;;;;;;;;;;;;;;;;;5085214;28;3452;-64
2023/09/09 14:37:15;;;;;;;;;;;;;;;;;;5089684;28;4819;-63
2023/09/09 14:39:40;;;;;;;;;;;;;;;;;;5087118;28;5006;-61
2023/09/09 14:42:05;;;;;;;;;;;;;;;;;;5081967;28;4680;-60
2023/09/09 14:44:31;;;;;;;;;;;;;;;;;;5082463;28;4642;-61
2023/09/09 14:46:56;;;;;;;;;;;;;;;;;;5090671;28;3433;-60
2023/09/09 14:49:22;;;;;;;;;;;;;;;;;;5073085;28;4992;-61
2023/09/09 14:51:47;;;;;;;;;;;;;;;;;;5095776;28;4851;-62
2023/09/09 14:54:12;;;;;;;;;;;;;;;;;;5086903;28;5048;-60
2023/09/09 14:56:38;;;;;;;;;;;;;;;;;;5098089;28;4438;-60
2023/09/09 14:59:03;;;;;;;;;;;;;;;;;;5071420;28;1111;-61
2023/09/09 15:01:28;;;;;;;;;;;;;;;;;;5055426;28;4443;-62
2023/09/09 15:03:53;;;;;;;;;;;;;;;;;;5059892;28;5102;-61
2023/09/09 15:06:21;;;;;;;;;;;;;;;;;;5058615;28;4867;-60
2023/09/09 15:08:47;;;;;;;;;;;;;;;;;;5048933;28;5041;-60
2023/09/09 15:11:12;;;;;;;;;;;;;;;;;;5045739;28;1112;-61
2023/09/09 15:13:38;;;;;;;;;;;;;;;;;;5046863;28;4859;-61
2023/09/09 15:16:04;;;;;;;;;;;;;;;;;;5053269;28;4993;-60
2023/09/09 15:18:29;;;;;;;;;;;;;;;;;;5058024;28;5007;-61
2023/09/09 15:20:54;;;;;;;;;;;;;;;;;;5065459;28;4431;-60
2023/09/09 15:23:19;;;;;;;;;;;;;;;;;;5063324;28;1394;-60
2023/09/09 15:25:45;;;;;;;;;;;;;;;;;;5068427;28;4982;-60
2023/09/09 15:28:15;;;;;;;;;;;;;;;;;;5065543;28;4408;-61
2023/09/09 15:30:41;;;;;;;;;;;;;;;;;;5069095;28;4965;-61
2023/09/09 15:33:06;;;;;;;;;;;;;;;;;;5065355;28;4782;-60
2023/09/09 15:35:31;;;;;;;;;;;;;;;;;;5068463;28;4593;-64
2023/09/09 15:37:57;;;;;;;;;;;;;;;;;;5063166;28;1229;-60
2023/09/09 15:40:22;;;;;;;;;;;;;;;;;;5060844;28;4522;-61
2023/09/09 15:42:47;;;;;;;;;;;;;;;;;;5067631;28;5072;-61
2023/09/09 15:45:12;;;;;;;;;;;;;;;;;;5066772;28;4821;-60
2023/09/09 15:47:38;;;;;;;;;;;;;;;;;;5065664;28;4954;-62
2023/09/09 15:50:03;;;;;;;;;;;;;;;;;;5064488;28;1101;-61
2023/09/09 15:52:29;;;;;;;;;;;;;;;;;;5061454;28;5084;-60
2023/09/09 15:54:54;;;;;;;;;;;;;;;;;;5068695;28;5040;-59
2023/09/09 15:57:19;;;;;;;;;;;;;;;;;;5068510;28;5045;-60
2023/09/09 15:59:45;;;;;;;;;;;;;;;;;;5088281;28;4459;-60
2023/09/09 16:02:10;;;;;;;;;;;;;;;;;;5088618;28;1914;-59
2023/09/09 16:04:35;;;;;;;;;;;;;;;;;;5088130;28;4979;-59
2023/09/09 16:07:01;;;;;;;;;;;;;;;;;;5088373;28;5503;-59
2023/09/09 16:09:26;;;;;;;;;;;;;;;;;;5069966;28;5069;-60
2023/09/09 16:11:51;;;;;;;;;;;;;;;;;;5084484;28;4459;-61
2023/09/09 16:14:16;;;;;;;;;;;;;;;;;;5069193;28;1096;-60
2023/09/09 16:16:42;;;;;;;;;;;;;;;;;;5067644;28;4943;-62
2023/09/09 16:19:07;;;;;;;;;;;;;;;;;;5068024;28;5118;-60
2023/09/09 16:21:38;;;;;;;;;;;;;;;;;;5066358;28;4477;-60
2023/09/09 16:24:04;;;;;;;;;;;;;;;;;;5070801;28;4900;-59
2023/09/09 16:26:29;;;;;;;;;;;;;;;;;;5071708;28;5086;-60
2023/09/09 16:28:54;;;;;;;;;;;;;;;;;;5067331;28;4887;-59
2023/09/09 16:31:19;;;;;;;;;;;;;;;;;;5068064;28;4824;-60
2023/09/09 16:33:45;;;;;;;;;;;;;;;;;;5063792;28;4649;-60
2023/09/09 16:36:10;;;;;;;;;;;;;;;;;;5067554;28;5152;-59
2023/09/09 16:38:35;;;;;;;;;;;;;;;;;;5069620;28;4943;-59
2023/09/09 16:41:01;;;;;;;;;;;;;;;;;;5081539;28;1934;-60
2023/09/09 16:43:27;;;;;;;;;;;;;;;;;;5087610;28;4823;-59
2023/09/09 16:45:52;;;;;;;;;;;;;;;;;;5075671;28;4934;-59
2023/09/09 16:48:21;;;;;;;;;;;;;;;;;;5049538;28;5026;-62
2023/09/09 16:50:46;;;;;;;;;;;;;;;;;;5067642;28;5064;-61
2023/09/09 16:53:12;;;;;;;;;;;;;;;;;;5068210;28;1253;-60
2023/09/09 16:55:37;;;;;;;;;;;;;;;;;;5067536;28;4942;-63